Airport ICAO


00:47 UTC

-1°C

Few clouds


An affordable passengers' Moving Map for your aircraft. Made for the iPad and the iPhone
More information here

EGWU Northolt


Northolt UNITED KINGDOM   VFR


METAR EGWU 222350Z AUTO 03005KT 9000 // FEW031/// M01/M03 Q1023 0h57min

TAF EGWU 221655Z 2218/2312 09008KT 9999 FEW035 7h52min





NOTAMS

OPEN